createdAt,value
2023-04-06T00:02:04.893Z,5.64
2023-04-06T00:07:10.536Z,5.72
2023-04-06T00:12:16.334Z,5.64
2023-04-06T00:17:21.930Z,5.66
2023-04-06T00:22:27.452Z,5.74
2023-04-06T00:27:33.025Z,5.83
2023-04-06T00:32:38.541Z,5.94
2023-04-06T00:37:44.246Z,5.95
2023-04-06T00:42:49.924Z,5.90
2023-04-06T00:47:55.533Z,5.97
2023-04-06T00:53:02.208Z,5.99
2023-04-06T00:58:08.630Z,5.98
2023-04-06T01:03:15.831Z,5.99
2023-04-06T01:08:24.101Z,5.99
2023-04-06T01:13:31.296Z,6.02
2023-04-06T01:18:40.318Z,6.03
2023-04-06T01:23:48.111Z,6.05
2023-04-06T01:28:55.333Z,6.04
2023-04-06T01:34:02.597Z,6.03
2023-04-06T01:39:08.703Z,6.04
2023-04-06T01:44:19.592Z,6.05
2023-04-06T01:49:26.814Z,6.08
2023-04-06T01:54:34.207Z,6.11
2023-04-06T01:59:44.375Z,6.03
2023-04-06T02:04:51.787Z,5.91
2023-04-06T02:09:58.040Z,5.88
2023-04-06T02:15:05.726Z,5.86
2023-04-06T02:20:11.941Z,5.97
2023-04-06T02:25:18.077Z,5.97
2023-04-06T02:30:23.614Z,6.02
2023-04-06T02:35:32.331Z,6.04
2023-04-06T02:40:38.094Z,5.95
2023-04-06T02:45:45.277Z,5.92
2023-04-06T02:50:51.221Z,5.89
2023-04-06T02:55:57.092Z,5.86
2023-04-06T03:01:04.249Z,5.79
2023-04-06T03:06:09.948Z,5.69
2023-04-06T03:11:15.784Z,5.69
2023-04-06T03:16:22.010Z,5.74
2023-04-06T03:21:28.637Z,5.76
2023-04-06T03:26:34.135Z,5.75
2023-04-06T03:31:41.755Z,5.79
2023-04-06T03:37:08.838Z,5.81
2023-04-06T03:42:03.221Z,5.84
2023-04-06T03:47:10.462Z,5.84
2023-04-06T03:52:16.033Z,5.89
2023-04-06T03:57:21.571Z,5.86
2023-04-06T04:02:27.262Z,5.84
2023-04-06T04:07:33.221Z,5.77
2023-04-06T04:12:38.816Z,5.77
2023-04-06T04:17:46.099Z,5.74
2023-04-06T04:22:51.577Z,5.76
2023-04-06T04:27:57.479Z,5.76
2023-04-06T04:33:03.377Z,5.80
2023-04-06T04:38:09.111Z,5.82
2023-04-06T04:43:16.236Z,5.86
2023-04-06T04:48:22.563Z,5.90
2023-04-06T04:53:32.689Z,6.01
2023-04-06T04:58:39.818Z,5.94
2023-04-06T05:03:46.349Z,5.96
2023-04-06T05:08:53.635Z,5.87
2023-04-06T05:14:02.035Z,5.79
2023-04-06T05:19:08.258Z,5.80
2023-04-06T05:24:15.714Z,5.85
2023-04-06T05:29:22.376Z,5.90
2023-04-06T05:34:28.014Z,5.98
2023-04-06T05:39:35.060Z,6.03
2023-04-06T05:44:41.464Z,6.03
2023-04-06T05:49:48.664Z,6.18
2023-04-06T05:54:55.853Z,6.24
2023-04-06T06:00:04.814Z,6.33
2023-04-06T06:05:12.046Z,6.37
2023-04-06T06:10:18.884Z,6.49
2023-04-06T06:15:24.596Z,6.64
2023-04-06T06:20:30.754Z,6.76
2023-04-06T06:25:38.026Z,6.83
2023-04-06T06:30:44.134Z,6.99
2023-04-06T06:35:52.439Z,7.12
2023-04-06T06:40:58.186Z,7.26
2023-04-06T06:46:05.908Z,7.29
2023-04-06T06:51:12.926Z,7.49
2023-04-06T06:56:18.869Z,7.77
2023-04-06T07:01:24.681Z,7.96
2023-04-06T07:06:30.680Z,8.06
2023-04-06T07:11:36.273Z,8.24
2023-04-06T07:16:42.359Z,8.49
2023-04-06T07:21:49.876Z,8.73
2023-04-06T07:26:55.532Z,8.60
2023-04-06T07:32:01.376Z,8.52
2023-04-06T07:37:07.611Z,8.44
2023-04-06T07:42:13.704Z,8.48
2023-04-06T07:47:20.042Z,8.64
2023-04-06T07:52:25.809Z,8.59
2023-04-06T07:57:31.791Z,8.71
2023-04-06T08:02:37.402Z,9.02
2023-04-06T08:07:43.697Z,9.29
2023-04-06T08:12:49.312Z,9.42
2023-04-06T08:17:56.427Z,8.90
2023-04-06T08:23:01.991Z,8.92
2023-04-06T08:28:07.778Z,9.08
2023-04-06T08:33:13.298Z,9.10
2023-04-06T08:38:18.781Z,9.43
2023-04-06T08:43:25.755Z,9.82
2023-04-06T08:48:31.760Z,9.46
2023-04-06T08:53:37.873Z,9.52
2023-04-06T08:58:43.844Z,9.61
2023-04-06T09:03:52.234Z,10.07
2023-04-06T09:08:59.223Z,10.27
2023-04-06T09:14:04.941Z,10.03
2023-04-06T09:19:11.308Z,10.10
2023-04-06T09:24:18.403Z,10.41
2023-04-06T09:29:28.350Z,10.66
2023-04-06T09:34:35.300Z,10.82
2023-04-06T09:39:40.883Z,10.89
2023-04-06T09:44:46.673Z,11.04
2023-04-06T09:49:55.096Z,11.14
2023-04-06T09:55:03.956Z,11.28
2023-04-06T10:00:12.735Z,11.45
2023-04-06T10:05:37.805Z,11.26
2023-04-06T10:10:44.681Z,11.52
2023-04-06T10:15:51.488Z,11.89
2023-04-06T10:21:18.217Z,12.01
2023-04-06T10:26:24.882Z,12.09
2023-04-06T10:31:31.156Z,11.68
2023-04-06T10:36:37.367Z,11.39
2023-04-06T10:41:46.775Z,11.29
2023-04-06T10:47:01.460Z,11.35
2023-04-06T10:52:08.925Z,11.52
2023-04-06T10:57:15.405Z,11.32
2023-04-06T11:02:23.960Z,11.20
2023-04-06T11:07:31.306Z,11.35
2023-04-06T11:12:38.075Z,11.30
2023-04-06T11:17:43.663Z,11.36
2023-04-06T11:22:54.193Z,11.33
2023-04-06T11:28:00.148Z,11.39
2023-04-06T11:33:07.313Z,11.64
2023-04-06T11:38:13.080Z,11.62
2023-04-06T11:43:18.740Z,11.73
2023-04-06T11:48:26.463Z,11.77
2023-04-06T11:53:32.033Z,11.82
2023-04-06T11:58:37.596Z,11.88
2023-04-06T12:03:43.819Z,11.90
2023-04-06T12:08:49.708Z,11.92
2023-04-06T12:13:56.167Z,11.93
2023-04-06T12:19:03.595Z,11.92
2023-04-06T12:24:10.824Z,11.98
2023-04-06T12:29:16.409Z,12.13
2023-04-06T12:34:22.228Z,12.25
2023-04-06T12:39:29.685Z,12.40
2023-04-06T12:44:35.108Z,12.28
2023-04-06T12:49:40.775Z,12.44
2023-04-06T12:54:46.232Z,12.37
2023-04-06T12:59:52.677Z,12.53
2023-04-06T13:04:58.260Z,12.77
2023-04-06T13:10:03.939Z,12.77
2023-04-06T13:15:10.173Z,12.77
2023-04-06T13:20:15.854Z,12.71
2023-04-06T13:25:21.446Z,12.59
2023-04-06T13:30:27.022Z,12.30
2023-04-06T13:35:32.506Z,12.56
2023-04-06T13:40:39.483Z,12.65
2023-04-06T13:45:48.005Z,12.06
2023-04-06T13:50:53.798Z,12.47
2023-04-06T13:55:59.229Z,12.67
2023-04-06T14:01:11.638Z,13.14
2023-04-06T14:11:24.499Z,13.02
2023-04-06T14:16:30.078Z,13.95
2023-04-06T14:21:35.795Z,14.44
2023-04-06T14:26:43.718Z,14.44
2023-04-06T14:31:51.061Z,14.56
2023-04-06T14:36:57.076Z,14.10
2023-04-06T14:42:02.664Z,13.81
2023-04-06T14:47:08.430Z,13.61
2023-04-06T14:52:14.002Z,13.79
2023-04-06T14:57:19.479Z,13.66
2023-04-06T15:02:25.242Z,13.45
2023-04-06T15:07:31.096Z,13.24
2023-04-06T15:12:38.370Z,13.14
2023-04-06T15:17:43.947Z,12.96
2023-04-06T15:22:49.842Z,12.98
2023-04-06T15:27:56.809Z,13.00
2023-04-06T15:33:06.033Z,13.05
2023-04-06T15:38:12.183Z,13.07
2023-04-06T15:43:18.109Z,13.43
2023-04-06T15:48:24.696Z,13.70
2023-04-06T15:53:30.441Z,13.94
2023-04-06T15:58:36.225Z,14.17
2023-04-06T16:03:42.254Z,14.68
2023-04-06T16:08:48.128Z,14.92
2023-04-06T16:13:55.472Z,15.09
2023-04-06T16:19:01.715Z,15.12
2023-04-06T16:24:08.624Z,15.15
2023-04-06T16:29:14.766Z,14.98
2023-04-06T16:34:20.357Z,15.43
2023-04-06T16:39:26.130Z,15.29
2023-04-06T16:44:31.794Z,14.61
2023-04-06T16:49:37.305Z,14.00
2023-04-06T16:54:43.149Z,13.80
2023-04-06T16:59:48.604Z,13.44
2023-04-06T17:04:54.177Z,13.15
2023-04-06T17:10:02.282Z,12.91
2023-04-06T17:15:09.002Z,12.59
2023-04-06T17:20:14.609Z,12.41
2023-04-06T17:25:20.284Z,12.21
2023-04-06T17:30:25.915Z,11.99
2023-04-06T17:35:31.659Z,11.84
2023-04-06T17:40:37.978Z,11.65
2023-04-06T17:45:43.555Z,11.52
2023-04-06T17:50:49.133Z,11.27
2023-04-06T17:55:54.717Z,11.00
2023-04-06T18:01:00.678Z,10.75
2023-04-06T18:06:17.749Z,10.46
2023-04-06T18:11:23.426Z,10.21
2023-04-06T18:16:28.989Z,9.84
2023-04-06T18:21:34.708Z,9.58
2023-04-06T18:26:40.464Z,9.39
2023-04-06T18:31:47.744Z,9.15
2023-04-06T18:36:53.682Z,8.93
2023-04-06T18:41:59.168Z,8.68
2023-04-06T18:47:06.275Z,8.47
2023-04-06T18:52:11.813Z,8.15
2023-04-06T18:57:17.347Z,7.97
2023-04-06T19:02:23.094Z,7.82
2023-04-06T19:07:28.663Z,7.69
2023-04-06T19:12:39.631Z,7.54
2023-04-06T19:17:45.999Z,7.37
2023-04-06T19:22:51.636Z,7.41
2023-04-06T19:27:57.158Z,7.50
2023-04-06T19:33:03.029Z,7.44
2023-04-06T19:38:11.013Z,7.46
2023-04-06T19:43:18.259Z,7.42
2023-04-06T19:48:25.425Z,7.32
2023-04-06T19:53:41.139Z,7.16
2023-04-06T19:58:46.610Z,7.01
2023-04-06T20:03:52.978Z,6.99
2023-04-06T20:08:59.074Z,6.93
2023-04-06T20:14:05.038Z,6.82
2023-04-06T20:19:10.746Z,6.68
2023-04-06T20:24:16.732Z,6.58
2023-04-06T20:29:22.307Z,6.43
2023-04-06T20:34:29.156Z,6.39
2023-04-06T20:39:34.681Z,6.32
2023-04-06T20:44:40.173Z,6.30
2023-04-06T20:49:46.269Z,6.20
2023-04-06T20:54:51.881Z,6.22
2023-04-06T20:59:57.462Z,6.17
2023-04-06T21:05:02.959Z,6.14
2023-04-06T21:10:09.753Z,6.11
2023-04-06T21:15:15.211Z,6.21
2023-04-06T21:20:20.707Z,6.22
2023-04-06T21:25:26.319Z,6.31
2023-04-06T21:30:33.642Z,6.36
2023-04-06T21:35:43.763Z,6.37
2023-04-06T21:40:56.745Z,6.38
2023-04-06T21:46:02.192Z,6.39
2023-04-06T21:51:07.747Z,6.42
2023-04-06T21:56:13.413Z,6.43
2023-04-06T22:01:19.388Z,6.41
2023-04-06T22:06:25.846Z,6.39
2023-04-06T22:11:31.568Z,6.24
2023-04-06T22:16:37.285Z,6.13
2023-04-06T22:21:42.830Z,6.12
2023-04-06T22:26:48.286Z,5.97
2023-04-06T22:31:53.915Z,5.80
2023-04-06T22:36:59.368Z,5.75
2023-04-06T22:42:06.415Z,5.63
2023-04-06T22:47:11.992Z,5.51
2023-04-06T22:52:17.600Z,5.35
2023-04-06T22:57:23.239Z,5.34
2023-04-06T23:02:28.789Z,5.27
2023-04-06T23:07:35.699Z,5.22
2023-04-06T23:12:41.220Z,5.22
2023-04-06T23:17:46.856Z,5.11
2023-04-06T23:22:52.617Z,5.10
2023-04-06T23:27:58.063Z,5.02
2023-04-06T23:33:03.833Z,4.98
2023-04-06T23:38:09.785Z,4.96
2023-04-06T23:43:15.454Z,4.94
2023-04-06T23:48:21.130Z,4.92
2023-04-06T23:53:26.891Z,4.93
2023-04-06T23:58:32.492Z,4.86
